createdAt,value
2022-12-27T00:00:27.661Z,0.30
2022-12-27T00:02:57.126Z,0.70
2022-12-27T00:05:26.587Z,0.43
2022-12-27T00:07:56.956Z,0.43
2022-12-27T00:10:26.395Z,0.50
2022-12-27T00:12:55.809Z,0.60
2022-12-27T00:15:25.249Z,0.40
2022-12-27T00:17:54.826Z,0.40
2022-12-27T00:20:24.259Z,0.57
2022-12-27T00:22:53.704Z,0.40
2022-12-27T00:25:23.793Z,0.60
2022-12-27T00:27:53.218Z,0.50
2022-12-27T00:30:22.647Z,0.40
2022-12-27T00:32:52.077Z,0.50
2022-12-27T00:35:21.492Z,0.40
2022-12-27T00:37:50.926Z,0.30
2022-12-27T00:40:20.355Z,0.30
2022-12-27T00:42:49.781Z,0.40
2022-12-27T00:45:19.346Z,0.50
2022-12-27T00:47:48.781Z,0.47
2022-12-27T00:50:18.191Z,0.33
2022-12-27T00:52:47.612Z,0.40
2022-12-27T00:55:17.474Z,0.20
2022-12-27T00:57:46.905Z,0.40
2022-12-27T01:00:17.156Z,0.30
2022-12-27T01:02:46.890Z,0.40
2022-12-27T01:05:16.335Z,0.67
2022-12-27T01:07:45.852Z,0.50
2022-12-27T01:10:15.289Z,0.27
2022-12-27T01:12:44.701Z,0.40
2022-12-27T01:15:14.215Z,0.43
2022-12-27T01:17:43.662Z,0.40
2022-12-27T01:20:13.271Z,0.33
2022-12-27T01:22:42.786Z,0.43
2022-12-27T01:25:12.364Z,0.60
2022-12-27T01:27:41.818Z,0.67
2022-12-27T01:30:12.274Z,0.70
2022-12-27T01:32:41.743Z,0.97
2022-12-27T01:35:11.415Z,1.00
2022-12-27T01:37:40.840Z,0.80
2022-12-27T01:40:11.112Z,0.80
2022-12-27T01:42:52.480Z,0.80
2022-12-27T01:45:26.293Z,0.73
2022-12-27T01:48:21.289Z,0.80
2022-12-27T01:50:58.246Z,0.63
2022-12-27T01:53:38.164Z,0.70
2022-12-27T01:56:12.229Z,0.40
2022-12-27T01:58:58.421Z,0.80
2022-12-27T02:01:32.847Z,0.43
2022-12-27T02:04:23.157Z,0.43
2022-12-27T02:06:53.810Z,0.40
2022-12-27T02:09:44.877Z,0.40
2022-12-27T02:12:16.025Z,0.40
2022-12-27T02:14:49.737Z,0.20
2022-12-27T02:17:26.781Z,0.30
2022-12-27T02:20:18.512Z,0.40
2022-12-27T02:23:43.006Z,0.20
2022-12-27T02:26:56.123Z,0.30
2022-12-27T02:29:44.360Z,0.30
2022-12-27T02:32:33.155Z,0.33
2022-12-27T02:35:10.172Z,0.33
2022-12-27T02:37:44.233Z,0.30
2022-12-27T02:40:35.196Z,0.40
2022-12-27T02:43:23.536Z,0.43
2022-12-27T02:46:33.281Z,0.20
2022-12-27T02:49:20.673Z,0.37
2022-12-27T02:52:39.572Z,0.37
2022-12-27T02:55:29.324Z,0.30
2022-12-27T02:58:26.619Z,0.40
2022-12-27T03:01:36.914Z,0.40
2022-12-27T03:04:42.736Z,0.40
2022-12-27T03:07:34.594Z,0.60
2022-12-27T03:10:54.590Z,0.80
2022-12-27T03:13:52.005Z,0.60
2022-12-27T03:16:28.967Z,0.60
2022-12-27T03:19:22.483Z,0.50
2022-12-27T03:22:10.058Z,0.50
2022-12-27T03:25:00.252Z,0.50
2022-12-27T03:27:36.940Z,0.53
2022-12-27T03:30:30.089Z,0.50
2022-12-27T03:33:15.141Z,0.70
2022-12-27T03:36:21.729Z,0.30
2022-12-27T03:39:12.334Z,0.53
2022-12-27T03:42:06.877Z,0.30
2022-12-27T03:44:36.578Z,0.37
2022-12-27T03:47:25.873Z,0.30
2022-12-27T03:50:02.755Z,0.67
2022-12-27T03:52:54.713Z,0.30
2022-12-27T03:55:28.513Z,0.30
2022-12-27T03:57:56.184Z,0.40
2022-12-27T04:00:25.684Z,0.40
2022-12-27T04:02:55.448Z,0.60
2022-12-27T04:05:25.028Z,0.30
2022-12-27T04:08:12.829Z,0.50
2022-12-27T04:10:59.954Z,0.33
2022-12-27T04:13:47.403Z,0.60
2022-12-27T04:16:35.051Z,0.40
2022-12-27T04:19:22.505Z,0.30
2022-12-27T04:22:09.879Z,0.40
2022-12-27T04:24:57.143Z,0.40
2022-12-27T04:27:44.581Z,0.30
2022-12-27T04:30:32.235Z,0.60
2022-12-27T04:33:19.671Z,0.30
2022-12-27T04:35:49.108Z,0.40
2022-12-27T04:38:18.684Z,0.50
2022-12-27T04:41:06.110Z,0.20
2022-12-27T04:43:46.169Z,0.23
2022-12-27T04:46:38.265Z,0.20
2022-12-27T04:49:27.236Z,0.50
2022-12-27T04:51:58.323Z,0.40
2022-12-27T04:54:45.835Z,0.43
2022-12-27T04:57:15.257Z,0.40
2022-12-27T05:00:02.543Z,0.40
2022-12-27T05:02:32.124Z,0.30
2022-12-27T05:05:02.033Z,0.40
2022-12-27T05:07:49.463Z,0.77
2022-12-27T05:10:36.684Z,0.50
2022-12-27T05:13:24.370Z,0.40
2022-12-27T05:15:53.824Z,0.60
2022-12-27T05:18:23.683Z,0.50
2022-12-27T05:20:53.144Z,0.50
2022-12-27T05:23:40.470Z,0.43
2022-12-27T05:26:09.919Z,0.30
2022-12-27T05:28:39.356Z,0.37
2022-12-27T05:31:09.990Z,0.50
2022-12-27T05:33:39.493Z,0.63
2022-12-27T05:36:10.016Z,1.03
2022-12-27T05:38:40.141Z,0.73
2022-12-27T05:41:09.585Z,0.90
2022-12-27T05:43:39.259Z,0.83
2022-12-27T05:46:16.039Z,0.60
2022-12-27T05:48:45.830Z,0.43
2022-12-27T05:51:21.839Z,0.40
2022-12-27T05:53:51.652Z,0.70
2022-12-27T05:56:22.605Z,0.40
2022-12-27T05:58:56.470Z,0.50
2022-12-27T06:01:25.927Z,0.40
2022-12-27T06:03:55.500Z,0.47
2022-12-27T06:06:24.943Z,0.30
2022-12-27T06:08:55.259Z,0.40
2022-12-27T06:11:24.760Z,0.30
2022-12-27T06:13:55.715Z,0.37
2022-12-27T06:16:25.198Z,0.37
2022-12-27T06:18:55.434Z,0.40
2022-12-27T06:21:24.879Z,0.30
2022-12-27T06:23:54.408Z,0.40
2022-12-27T06:26:27.336Z,0.50
2022-12-27T06:28:59.288Z,0.30
2022-12-27T06:31:30.083Z,0.30
2022-12-27T06:33:59.715Z,0.33
2022-12-27T06:36:30.790Z,0.40
2022-12-27T06:39:01.175Z,0.80
2022-12-27T06:41:30.601Z,0.50
2022-12-27T06:44:00.501Z,0.40
2022-12-27T06:46:30.046Z,0.47
2022-12-27T06:48:59.462Z,0.37
2022-12-27T06:51:28.893Z,0.40
2022-12-27T06:53:58.338Z,0.30
2022-12-27T06:56:27.763Z,0.43
2022-12-27T06:58:57.279Z,0.60
2022-12-27T07:01:29.167Z,0.40
2022-12-27T07:04:01.422Z,0.40
2022-12-27T07:06:32.933Z,0.50
2022-12-27T07:09:02.924Z,0.30
2022-12-27T07:11:35.853Z,0.50
2022-12-27T07:14:05.858Z,0.57
2022-12-27T07:16:35.796Z,0.53
2022-12-27T07:19:05.537Z,0.30
2022-12-27T07:21:35.077Z,0.37
2022-12-27T07:24:04.617Z,0.50
2022-12-27T07:26:34.026Z,0.70
2022-12-27T07:29:04.034Z,0.73
2022-12-27T07:31:34.702Z,0.50
2022-12-27T07:34:05.538Z,0.50
2022-12-27T07:36:40.941Z,0.57
2022-12-27T07:39:10.893Z,0.53
2022-12-27T07:41:40.404Z,0.40
2022-12-27T07:44:12.082Z,0.30
2022-12-27T07:46:41.676Z,0.47
2022-12-27T07:49:17.533Z,0.47
2022-12-27T07:51:43.829Z,0.90
2022-12-27T07:54:13.275Z,0.93
2022-12-27T07:56:42.706Z,0.60
2022-12-27T07:59:14.374Z,0.70
2022-12-27T08:02:01.958Z,0.80
2022-12-27T08:04:32.820Z,0.60
2022-12-27T08:07:17.892Z,0.60
2022-12-27T08:09:49.319Z,0.60
2022-12-27T08:12:18.755Z,0.70
2022-12-27T08:14:48.207Z,0.40
2022-12-27T08:17:27.302Z,0.43
2022-12-27T08:19:57.641Z,0.50
2022-12-27T08:22:27.071Z,0.50
2022-12-27T08:24:56.674Z,0.40
2022-12-27T08:27:27.008Z,0.57
2022-12-27T08:29:56.716Z,0.40
2022-12-27T08:32:26.237Z,0.40
2022-12-27T08:35:06.890Z,0.50
2022-12-27T08:37:26.858Z,1.10
2022-12-27T08:40:02.393Z,0.60
2022-12-27T08:42:27.948Z,1.10
2022-12-27T08:44:57.407Z,0.63
2022-12-27T08:47:26.849Z,0.70
2022-12-27T08:49:56.305Z,0.90
2022-12-27T08:52:26.709Z,0.57
2022-12-27T08:54:56.159Z,0.80
2022-12-27T08:57:25.587Z,0.70
2022-12-27T08:59:55.213Z,0.77
2022-12-27T09:02:24.778Z,0.78
2022-12-27T09:04:54.272Z,0.60
2022-12-27T09:07:23.718Z,0.50
2022-12-27T09:09:53.168Z,0.63
2022-12-27T09:12:22.627Z,1.00
2022-12-27T09:14:52.066Z,0.90
2022-12-27T09:17:21.515Z,0.70
2022-12-27T09:19:51.390Z,0.73
2022-12-27T09:22:20.829Z,0.80
2022-12-27T09:24:50.278Z,0.70
2022-12-27T09:27:19.719Z,0.80
2022-12-27T09:29:50.032Z,1.00
2022-12-27T09:32:19.462Z,0.80
2022-12-27T09:34:49.101Z,1.17
2022-12-27T09:37:18.591Z,1.17
2022-12-27T09:39:48.035Z,0.80
2022-12-27T09:43:09.441Z,1.10
2022-12-27T09:45:42.197Z,1.40
2022-12-27T09:48:37.507Z,0.70
2022-12-27T09:51:20.211Z,0.93
2022-12-27T09:54:00.118Z,0.87
2022-12-27T09:56:54.364Z,0.57
2022-12-27T09:59:19.111Z,0.77
2022-12-27T10:01:49.221Z,0.83
2022-12-27T10:04:20.807Z,0.93
2022-12-27T10:07:14.543Z,0.93
2022-12-27T10:09:54.417Z,1.00
2022-12-27T10:12:43.531Z,1.07
2022-12-27T10:16:10.600Z,1.20
2022-12-27T10:18:59.226Z,1.40
2022-12-27T10:21:31.477Z,0.90
2022-12-27T10:24:05.516Z,0.70
2022-12-27T10:26:35.138Z,1.03
2022-12-27T10:29:26.771Z,1.40
2022-12-27T10:31:56.268Z,1.10
2022-12-27T10:34:25.714Z,1.10
2022-12-27T10:36:55.590Z,0.80
2022-12-27T10:39:33.947Z,0.97
2022-12-27T10:42:22.687Z,1.57
2022-12-27T10:44:52.623Z,1.70
2022-12-27T10:47:25.257Z,1.50
2022-12-27T10:50:11.067Z,1.40
2022-12-27T10:52:40.718Z,1.30
2022-12-27T10:55:31.236Z,1.67
2022-12-27T10:58:02.299Z,1.27
2022-12-27T11:00:32.178Z,1.30
2022-12-27T11:03:03.121Z,1.03
2022-12-27T11:05:35.840Z,0.90
2022-12-27T11:08:21.027Z,1.10
2022-12-27T11:10:50.536Z,0.90
2022-12-27T11:13:22.651Z,0.80
2022-12-27T11:15:59.032Z,1.00
2022-12-27T11:18:28.723Z,1.50
2022-12-27T11:21:01.069Z,0.97
2022-12-27T11:23:38.106Z,1.03
2022-12-27T11:26:09.019Z,0.83
2022-12-27T11:28:52.914Z,1.13
2022-12-27T11:31:38.681Z,0.93
2022-12-27T11:34:21.289Z,1.00
2022-12-27T11:36:55.337Z,0.87
2022-12-27T11:39:46.354Z,0.80
2022-12-27T11:42:28.526Z,0.80
2022-12-27T11:45:43.517Z,1.13
2022-12-27T11:48:26.208Z,1.20
2022-12-27T11:51:32.387Z,1.50
2022-12-27T11:54:27.125Z,1.40
2022-12-27T11:57:13.286Z,1.00
2022-12-27T12:00:08.922Z,1.17
2022-12-27T12:03:16.348Z,1.40
2022-12-27T12:06:08.292Z,0.90
2022-12-27T12:08:57.244Z,1.37
2022-12-27T12:12:07.667Z,1.80
2022-12-27T12:15:31.805Z,1.73
2022-12-27T12:18:35.588Z,1.10
2022-12-27T12:21:27.197Z,1.00
2022-12-27T12:24:29.523Z,0.80
2022-12-27T12:27:52.744Z,1.20
2022-12-27T12:30:44.578Z,1.20
2022-12-27T12:33:42.742Z,1.20
2022-12-27T12:36:16.796Z,1.60
2022-12-27T12:39:20.988Z,1.60
2022-12-27T12:42:12.895Z,1.20
2022-12-27T12:45:06.046Z,1.10
2022-12-27T12:47:42.729Z,1.17
2022-12-27T12:50:47.023Z,1.07
2022-12-27T12:53:26.394Z,1.00
2022-12-27T12:56:12.166Z,1.20
2022-12-27T12:58:51.824Z,1.23
2022-12-27T13:01:51.359Z,1.00
2022-12-27T13:04:40.743Z,1.40
2022-12-27T13:07:23.716Z,0.90
2022-12-27T13:10:00.442Z,1.37
2022-12-27T13:12:59.871Z,1.20
2022-12-27T13:16:06.302Z,1.10
2022-12-27T13:19:08.270Z,1.00
2022-12-27T13:21:59.774Z,1.00
2022-12-27T13:24:54.767Z,1.23
2022-12-27T13:27:35.297Z,1.40
2022-12-27T13:30:27.017Z,1.00
2022-12-27T13:33:07.122Z,1.10
2022-12-27T13:36:12.711Z,1.17
2022-12-27T13:39:21.676Z,1.30
2022-12-27T13:42:22.689Z,1.10
2022-12-27T13:45:24.466Z,1.03
2022-12-27T13:48:28.778Z,1.03
2022-12-27T13:51:44.197Z,1.00
2022-12-27T13:54:41.882Z,1.20
2022-12-27T13:57:32.780Z,0.97
2022-12-27T14:00:23.293Z,1.00
2022-12-27T14:03:41.315Z,0.87
2022-12-27T14:06:38.701Z,0.70
2022-12-27T14:09:45.872Z,1.10
2022-12-27T14:12:39.720Z,0.90
2022-12-27T14:15:16.569Z,0.67
2022-12-27T14:18:17.377Z,0.90
2022-12-27T14:21:06.028Z,1.03
2022-12-27T14:24:11.823Z,1.40
2022-12-27T14:26:45.888Z,1.37
2022-12-27T14:29:54.984Z,0.93
2022-12-27T14:33:06.789Z,0.60
2022-12-27T14:36:08.837Z,1.10
2022-12-27T14:38:54.695Z,1.00
2022-12-27T14:42:04.772Z,0.70
2022-12-27T14:45:10.209Z,0.60
2022-12-27T14:48:20.198Z,0.80
2022-12-27T14:51:58.236Z,0.87
2022-12-27T14:54:20.109Z,0.63
2022-12-27T14:57:46.065Z,0.70
2022-12-27T15:00:28.092Z,0.63
2022-12-27T15:03:21.653Z,1.50
2022-12-27T15:06:33.872Z,1.03
2022-12-27T15:09:30.580Z,1.03
2022-12-27T15:12:30.567Z,0.80
2022-12-27T15:15:13.360Z,0.80
2022-12-27T15:17:55.980Z,0.50
2022-12-27T15:20:54.159Z,0.40
2022-12-27T15:23:54.927Z,0.60
2022-12-27T15:26:49.723Z,0.83
2022-12-27T15:29:37.906Z,1.00
2022-12-27T15:32:29.698Z,0.70
2022-12-27T15:35:06.429Z,0.80
2022-12-27T15:37:51.770Z,0.50
2022-12-27T15:40:37.982Z,0.50
2022-12-27T15:43:23.121Z,0.70
2022-12-27T15:46:09.152Z,0.50
2022-12-27T15:48:57.323Z,0.57
2022-12-27T15:51:52.211Z,0.70
2022-12-27T15:54:51.824Z,0.40
2022-12-27T15:57:30.782Z,0.60
2022-12-27T16:00:16.547Z,0.40
2022-12-27T16:02:53.952Z,0.57
2022-12-27T16:05:29.846Z,0.60
2022-12-27T16:08:07.058Z,0.50
2022-12-27T16:10:47.831Z,0.67
2022-12-27T16:13:42.221Z,0.80
2022-12-27T16:16:13.994Z,0.60
2022-12-27T16:19:09.192Z,0.50
2022-12-27T16:21:46.008Z,0.50
2022-12-27T16:24:20.050Z,0.77
2022-12-27T16:27:04.833Z,0.60
2022-12-27T16:29:41.932Z,0.73
2022-12-27T16:32:28.162Z,1.20
2022-12-27T16:35:16.721Z,1.00
2022-12-27T16:37:55.713Z,0.70
2022-12-27T16:40:44.997Z,0.70
2022-12-27T16:43:27.898Z,0.70
2022-12-27T16:46:16.584Z,0.50
2022-12-27T16:49:25.063Z,0.60
2022-12-27T16:52:16.464Z,0.50
2022-12-27T16:55:04.990Z,0.63
2022-12-27T16:57:42.028Z,0.63
2022-12-27T17:00:30.569Z,0.70
2022-12-27T17:03:25.820Z,0.60
2022-12-27T17:08:33.310Z,0.67
2022-12-27T17:11:30.700Z,0.57
2022-12-27T17:14:20.194Z,0.67
2022-12-27T17:16:58.944Z,0.67
2022-12-27T17:19:41.996Z,0.63
2022-12-27T17:22:16.058Z,0.60
2022-12-27T17:24:47.905Z,1.03
2022-12-27T17:27:40.933Z,0.77
2022-12-27T17:30:42.335Z,0.80
2022-12-27T17:33:37.360Z,0.90
2022-12-27T17:36:19.488Z,0.97
2022-12-27T17:39:33.114Z,0.80
2022-12-27T17:43:01.449Z,0.72
2022-12-27T17:45:47.235Z,0.40
2022-12-27T17:48:32.446Z,0.57
2022-12-27T17:51:15.687Z,0.73
2022-12-27T17:54:11.862Z,0.80
2022-12-27T17:57:18.795Z,0.70
2022-12-27T17:59:51.756Z,0.60
2022-12-27T18:02:41.120Z,0.63
2022-12-27T18:05:15.000Z,0.60
2022-12-27T18:07:46.538Z,0.57
2022-12-27T18:10:31.736Z,0.63
2022-12-27T18:13:05.881Z,0.70
2022-12-27T18:15:43.026Z,0.70
2022-12-27T18:18:19.607Z,0.50
2022-12-27T18:20:52.103Z,0.67
2022-12-27T18:23:21.989Z,0.47
2022-12-27T18:25:56.431Z,0.73
2022-12-27T18:28:33.852Z,0.70
2022-12-27T18:31:24.331Z,0.70
2022-12-27T18:34:24.940Z,0.90
2022-12-27T18:37:02.358Z,1.00
2022-12-27T18:39:39.376Z,1.40
2022-12-27T18:42:32.948Z,1.30
2022-12-27T18:45:09.909Z,0.90
2022-12-27T18:47:43.114Z,0.87
2022-12-27T18:50:22.449Z,0.83
2022-12-27T18:53:05.504Z,1.07
2022-12-27T18:55:36.968Z,1.27
2022-12-27T18:58:20.575Z,1.13
2022-12-27T19:01:02.392Z,0.90
2022-12-27T19:03:40.221Z,0.77
2022-12-27T19:06:12.009Z,0.80
2022-12-27T19:08:49.079Z,0.97
2022-12-27T19:11:34.661Z,0.80
2022-12-27T19:14:04.243Z,0.83
2022-12-27T19:16:36.707Z,0.83
2022-12-27T19:19:13.891Z,0.80
2022-12-27T19:21:43.367Z,0.80
2022-12-27T19:24:29.437Z,0.80
2022-12-27T19:27:03.094Z,0.70
2022-12-27T19:29:39.377Z,0.73
2022-12-27T19:32:09.865Z,0.77
2022-12-27T19:34:46.895Z,1.23
2022-12-27T19:37:17.156Z,1.20
2022-12-27T19:39:49.309Z,1.13
2022-12-27T19:42:26.041Z,1.52
2022-12-27T19:44:55.482Z,1.00
2022-12-27T19:47:25.389Z,1.23
2022-12-27T19:49:54.849Z,1.87
2022-12-27T19:52:28.208Z,1.47
2022-12-27T19:55:02.910Z,1.13
2022-12-27T19:57:32.605Z,1.30
2022-12-27T20:00:08.439Z,1.57
2022-12-27T20:02:33.778Z,1.20
2022-12-27T20:05:03.256Z,1.20
2022-12-27T20:07:32.763Z,0.80
2022-12-27T20:10:02.214Z,1.20
2022-12-27T20:12:31.649Z,1.00
2022-12-27T20:15:01.159Z,1.00
2022-12-27T20:17:32.679Z,1.10
2022-12-27T20:20:02.086Z,1.20
2022-12-27T20:22:31.604Z,1.00
2022-12-27T20:25:01.048Z,1.03
2022-12-27T20:27:30.890Z,0.70
2022-12-27T20:30:00.405Z,0.90
2022-12-27T20:32:30.020Z,0.80
2022-12-27T20:34:59.458Z,0.83
2022-12-27T20:37:29.724Z,0.80
2022-12-27T20:39:59.290Z,1.07
2022-12-27T20:42:28.792Z,0.80
2022-12-27T20:44:58.295Z,0.80
2022-12-27T20:47:27.895Z,0.70
2022-12-27T20:49:57.369Z,0.70
2022-12-27T20:52:30.943Z,1.00
2022-12-27T20:54:58.030Z,0.73
2022-12-27T20:57:27.834Z,0.63
2022-12-27T20:59:57.280Z,0.80
2022-12-27T21:02:26.966Z,0.87
2022-12-27T21:04:56.736Z,1.17
2022-12-27T21:07:26.335Z,1.13
2022-12-27T21:09:56.199Z,1.37
2022-12-27T21:12:25.704Z,1.13
2022-12-27T21:14:55.149Z,1.00
2022-12-27T21:17:24.591Z,0.97
2022-12-27T21:19:54.203Z,1.40
2022-12-27T21:22:23.712Z,1.50
2022-12-27T21:24:53.173Z,1.40
2022-12-27T21:27:22.610Z,1.10
2022-12-27T21:29:52.057Z,1.50
2022-12-27T21:32:21.496Z,1.10
2022-12-27T21:34:50.969Z,0.80
2022-12-27T21:37:21.178Z,0.57
2022-12-27T21:39:50.706Z,0.80
2022-12-27T21:42:20.199Z,0.90
2022-12-27T21:44:49.654Z,0.80
2022-12-27T21:47:19.163Z,0.63
2022-12-27T21:49:48.745Z,0.60
2022-12-27T21:52:18.176Z,0.77
2022-12-27T21:54:47.635Z,1.20
2022-12-27T21:57:17.078Z,1.10
2022-12-27T21:59:46.536Z,1.20
2022-12-27T22:02:17.826Z,0.93
2022-12-27T22:04:47.333Z,1.00
2022-12-27T22:07:16.769Z,0.90
2022-12-27T22:09:46.212Z,0.70
2022-12-27T22:12:15.724Z,0.87
2022-12-27T22:14:45.196Z,0.50
2022-12-27T22:17:14.655Z,0.60
2022-12-27T22:19:44.227Z,0.53
2022-12-27T22:22:13.694Z,0.50
2022-12-27T22:24:43.128Z,0.50
2022-12-27T22:27:12.586Z,0.43
2022-12-27T22:29:42.028Z,0.57
2022-12-27T22:32:11.461Z,0.70
2022-12-27T22:34:40.912Z,0.63
2022-12-27T22:37:10.560Z,0.50
2022-12-27T22:39:40.174Z,0.40
2022-12-27T22:42:09.659Z,0.50
2022-12-27T22:44:39.095Z,0.70
2022-12-27T22:47:26.396Z,0.60
2022-12-27T22:49:39.713Z,0.90
2022-12-27T22:52:09.173Z,0.80
2022-12-27T22:55:04.871Z,1.03
2022-12-27T22:57:23.025Z,0.70
2022-12-27T22:59:52.498Z,0.50
2022-12-27T23:02:22.432Z,0.57
2022-12-27T23:04:52.147Z,0.70
2022-12-27T23:08:04.756Z,0.50
2022-12-27T23:09:52.804Z,0.50
2022-12-27T23:12:22.236Z,0.73
2022-12-27T23:14:52.276Z,0.50
2022-12-27T23:17:21.714Z,0.60
2022-12-27T23:19:51.164Z,0.70
2022-12-27T23:22:20.676Z,0.60
2022-12-27T23:24:50.127Z,0.50
2022-12-27T23:27:19.559Z,0.80
2022-12-27T23:29:49.069Z,0.80
2022-12-27T23:32:18.495Z,0.60
2022-12-27T23:34:48.027Z,0.97
2022-12-27T23:37:17.459Z,0.60
2022-12-27T23:39:46.909Z,0.70
2022-12-27T23:42:16.356Z,0.60
2022-12-27T23:44:45.806Z,0.50
2022-12-27T23:47:15.231Z,0.60
2022-12-27T23:49:44.725Z,0.50
2022-12-27T23:52:14.174Z,0.50
2022-12-27T23:54:43.601Z,0.60
2022-12-27T23:57:22.557Z,1.00
2022-12-27T23:59:44.209Z,0.80
